createdAt,value
2017-07-26T00:00:56.832Z,0
2017-07-26T00:01:55.944Z,0
2017-07-26T00:02:55.290Z,0
2017-07-26T00:03:55.909Z,0
2017-07-26T00:04:56.293Z,0
2017-07-26T00:05:56.899Z,0
2017-07-26T00:06:57.694Z,0
2017-07-26T00:07:56.573Z,0
2017-07-26T00:08:56.232Z,0
2017-07-26T00:09:56.559Z,0
2017-07-26T00:10:56.025Z,0
2017-07-26T00:11:56.197Z,0
2017-07-26T00:12:55.861Z,0
2017-07-26T00:13:56.249Z,0
2017-07-26T00:14:56.655Z,0
2017-07-26T00:15:56.188Z,0
2017-07-26T00:16:55.530Z,0
2017-07-26T00:17:55.843Z,0
2017-07-26T00:18:57.070Z,0
2017-07-26T00:19:57.032Z,0
2017-07-26T00:20:56.114Z,0
2017-07-26T00:21:56.119Z,0
2017-07-26T00:22:55.835Z,0
2017-07-26T00:23:56.860Z,0
2017-07-26T00:24:56.449Z,0
2017-07-26T00:25:55.780Z,0
2017-07-26T00:26:55.461Z,0
2017-07-26T00:27:57.053Z,0
2017-07-26T00:28:55.881Z,0
2017-07-26T00:29:55.407Z,0
2017-07-26T00:30:56.069Z,0
2017-07-26T00:31:56.070Z,0
2017-07-26T00:32:57.349Z,0
2017-07-26T00:33:55.497Z,0
2017-07-26T00:34:55.869Z,0
2017-07-26T00:35:56.010Z,0
2017-07-26T00:36:56.012Z,0
2017-07-26T00:37:56.034Z,0
2017-07-26T00:38:57.603Z,0
2017-07-26T00:39:55.988Z,0
2017-07-26T00:40:55.377Z,0
2017-07-26T00:41:55.646Z,0
2017-07-26T00:42:56.246Z,0
2017-07-26T00:43:56.601Z,0
2017-07-26T00:44:55.621Z,0
2017-07-26T00:45:55.622Z,0
2017-07-26T00:46:55.993Z,0
2017-07-26T00:47:56.283Z,0
2017-07-26T00:48:56.050Z,0
2017-07-26T00:49:55.802Z,0
2017-07-26T00:50:55.259Z,0
2017-07-26T00:51:55.585Z,0
2017-07-26T00:52:55.874Z,0
2017-07-26T00:53:57.133Z,0
2017-07-26T00:54:56.720Z,0
2017-07-26T00:55:55.869Z,0
2017-07-26T00:56:55.222Z,0
2017-07-26T00:57:55.840Z,0
2017-07-26T00:58:55.223Z,0
2017-07-26T00:59:55.437Z,0
2017-07-26T01:00:56.414Z,0
2017-07-26T01:01:55.506Z,0
2017-07-26T01:02:54.851Z,0
2017-07-26T01:03:55.506Z,0
2017-07-26T01:04:55.185Z,0
2017-07-26T01:05:55.797Z,0
2017-07-26T01:06:55.133Z,0
2017-07-26T01:07:55.769Z,0
2017-07-26T01:08:55.131Z,0
2017-07-26T01:09:55.774Z,0
2017-07-26T01:10:55.449Z,0
2017-07-26T01:11:55.421Z,0
2017-07-26T01:12:55.100Z,0
2017-07-26T01:13:55.424Z,0
2017-07-26T01:14:55.428Z,0
2017-07-26T01:15:55.734Z,0
2017-07-26T01:16:55.404Z,0
2017-07-26T01:17:55.713Z,0
2017-07-26T01:18:55.389Z,0
2017-07-26T01:19:55.359Z,0
2017-07-26T01:20:55.358Z,0
2017-07-26T01:21:54.718Z,0
2017-07-26T01:22:55.658Z,0
2017-07-26T01:23:55.333Z,0
2017-07-26T01:24:55.338Z,0
2017-07-26T01:25:55.352Z,0
2017-07-26T01:26:54.984Z,0
2017-07-26T01:27:55.634Z,0
2017-07-26T01:28:54.991Z,0
2017-07-26T01:29:54.960Z,0
2017-07-26T01:30:55.600Z,0
2017-07-26T01:31:55.604Z,0
2017-07-26T01:32:55.611Z,0
2017-07-26T01:33:55.585Z,0
2017-07-26T01:34:54.991Z,0
2017-07-26T01:35:55.235Z,0
2017-07-26T01:36:55.261Z,0
2017-07-26T01:37:55.234Z,0
2017-07-26T01:38:55.537Z,0
2017-07-26T01:39:55.552Z,0
2017-07-26T01:40:55.545Z,0
2017-07-26T01:41:54.542Z,0
2017-07-26T01:42:55.552Z,0
2017-07-26T01:43:54.547Z,0
2017-07-26T01:44:55.500Z,0
2017-07-26T01:45:55.530Z,0
2017-07-26T01:46:55.156Z,0
2017-07-26T01:47:55.481Z,0
2017-07-26T01:48:55.164Z,0
2017-07-26T01:49:54.820Z,0
2017-07-26T01:50:54.493Z,0
2017-07-26T01:51:55.168Z,0
2017-07-26T01:52:55.429Z,0
2017-07-26T01:53:54.826Z,0
2017-07-26T01:54:55.101Z,0
2017-07-26T01:55:54.767Z,0
2017-07-26T01:56:55.421Z,0
2017-07-26T01:57:55.102Z,0
2017-07-26T01:58:55.407Z,0
2017-07-26T01:59:55.116Z,0
2017-07-26T02:00:55.400Z,0
2017-07-26T02:01:55.050Z,0
2017-07-26T02:02:54.724Z,0
2017-07-26T02:03:55.059Z,0
2017-07-26T02:04:55.026Z,0
2017-07-26T02:05:55.382Z,0
2017-07-26T02:06:55.334Z,0
2017-07-26T02:07:55.335Z,0
2017-07-26T02:08:55.005Z,0
2017-07-26T02:09:55.335Z,0
2017-07-26T02:10:54.697Z,0
2017-07-26T02:11:55.294Z,0
2017-07-26T02:12:54.682Z,0
2017-07-26T02:13:54.979Z,0
2017-07-26T02:14:55.310Z,0
2017-07-26T02:15:55.266Z,0
2017-07-26T02:16:54.302Z,0
2017-07-26T02:17:54.635Z,0
2017-07-26T02:18:55.256Z,0
2017-07-26T02:19:54.609Z,0
2017-07-26T02:20:54.907Z,0
2017-07-26T02:21:55.216Z,0
2017-07-26T02:22:54.889Z,0
2017-07-26T02:23:55.260Z,0
2017-07-26T02:24:54.878Z,0
2017-07-26T02:25:54.897Z,0
2017-07-26T02:26:54.859Z,0
2017-07-26T02:27:54.231Z,0
2017-07-26T02:28:54.529Z,0
2017-07-26T02:29:54.529Z,0
2017-07-26T02:30:54.510Z,0
2017-07-26T02:31:54.845Z,0
2017-07-26T02:32:55.173Z,0
2017-07-26T02:33:54.495Z,0
2017-07-26T02:34:55.180Z,0
2017-07-26T02:35:54.499Z,0
2017-07-26T02:36:55.121Z,0
2017-07-26T02:37:54.465Z,0
2017-07-26T02:38:54.456Z,0
2017-07-26T02:39:54.806Z,0
2017-07-26T02:40:55.098Z,0
2017-07-26T02:41:54.776Z,0
2017-07-26T02:42:54.460Z,0
2017-07-26T02:43:54.441Z,0
2017-07-26T02:44:55.093Z,0
2017-07-26T02:45:54.730Z,0
2017-07-26T02:46:55.068Z,0
2017-07-26T02:47:55.048Z,0
2017-07-26T02:48:54.474Z,0
2017-07-26T02:49:55.025Z,0
2017-07-26T02:50:54.725Z,0
2017-07-26T02:51:54.730Z,0
2017-07-26T02:52:54.679Z,0
2017-07-26T02:53:54.370Z,0
2017-07-26T02:54:54.682Z,0
2017-07-26T02:55:54.983Z,0
2017-07-26T02:56:54.329Z,0
2017-07-26T02:57:54.991Z,0
2017-07-26T02:58:54.634Z,0
2017-07-26T02:59:54.309Z,0
2017-07-26T03:00:54.313Z,0
2017-07-26T03:01:54.314Z,0
2017-07-26T03:02:54.280Z,0
2017-07-26T03:03:54.337Z,0
2017-07-26T03:04:54.294Z,0
2017-07-26T03:05:54.588Z,0
2017-07-26T03:06:54.921Z,0
2017-07-26T03:07:54.577Z,0
2017-07-26T03:08:54.886Z,0
2017-07-26T03:09:54.610Z,0
2017-07-26T03:10:54.551Z,0
2017-07-26T03:11:54.547Z,0
2017-07-26T03:12:54.550Z,0
2017-07-26T03:13:54.536Z,0
2017-07-26T03:14:54.867Z,0
2017-07-26T03:15:54.845Z,0
2017-07-26T03:16:54.513Z,0
2017-07-26T03:17:54.506Z,0
2017-07-26T03:18:54.498Z,0
2017-07-26T03:19:54.515Z,0
2017-07-26T03:20:54.819Z,0
2017-07-26T03:21:54.468Z,0
2017-07-26T03:22:54.466Z,0
2017-07-26T03:23:54.787Z,0
2017-07-26T03:24:54.792Z,0
2017-07-26T03:25:54.451Z,0
2017-07-26T03:26:54.508Z,0
2017-07-26T03:27:54.426Z,0
2017-07-26T03:28:53.798Z,0
2017-07-26T03:29:54.430Z,0
2017-07-26T03:30:54.742Z,0
2017-07-26T03:31:54.418Z,0
2017-07-26T03:32:54.401Z,0
2017-07-26T03:33:54.712Z,0
2017-07-26T03:34:54.727Z,0
2017-07-26T03:35:54.047Z,0
2017-07-26T03:36:54.049Z,0
2017-07-26T03:37:54.695Z,0
2017-07-26T03:38:54.349Z,0
2017-07-26T03:39:54.053Z,0
2017-07-26T03:40:54.334Z,5
2017-07-26T03:41:54.654Z,5
2017-07-26T03:42:54.336Z,5
2017-07-26T03:43:53.991Z,5
2017-07-26T03:44:54.626Z,5
2017-07-26T03:45:54.631Z,5
2017-07-26T03:46:54.291Z,5
2017-07-26T03:47:53.982Z,5
2017-07-26T03:48:54.624Z,5
2017-07-26T03:49:54.619Z,5
2017-07-26T03:50:54.324Z,5
2017-07-26T03:51:54.254Z,10
2017-07-26T03:52:54.286Z,5
2017-07-26T03:53:54.238Z,5
2017-07-26T03:54:54.569Z,5
2017-07-26T03:55:54.266Z,5
2017-07-26T03:56:53.902Z,5
2017-07-26T03:57:53.903Z,5
2017-07-26T03:58:54.224Z,5
2017-07-26T03:59:54.215Z,5
2017-07-26T04:00:54.205Z,5
2017-07-26T04:01:54.505Z,10
2017-07-26T04:02:54.178Z,10
2017-07-26T04:03:54.513Z,15
2017-07-26T04:04:53.880Z,15
2017-07-26T04:05:54.489Z,10
2017-07-26T04:06:54.146Z,10
2017-07-26T04:07:54.507Z,5
2017-07-26T04:08:54.130Z,5
2017-07-26T04:09:53.804Z,5
2017-07-26T04:10:54.470Z,5
2017-07-26T04:11:54.114Z,5
2017-07-26T04:12:54.426Z,10
2017-07-26T04:13:53.775Z,5
2017-07-26T04:14:54.112Z,5
2017-07-26T04:15:54.081Z,5
2017-07-26T04:16:53.769Z,5
2017-07-26T04:17:54.123Z,10
2017-07-26T04:18:54.398Z,10
2017-07-26T04:19:54.058Z,10
2017-07-26T04:20:54.379Z,15
2017-07-26T04:21:53.738Z,15
2017-07-26T04:22:54.376Z,15
2017-07-26T04:23:53.729Z,15
2017-07-26T04:24:54.029Z,15
2017-07-26T04:25:53.369Z,15
2017-07-26T04:26:54.030Z,15
2017-07-26T04:27:54.322Z,15
2017-07-26T04:28:54.324Z,15
2017-07-26T04:29:53.659Z,15
2017-07-26T04:30:53.349Z,15
2017-07-26T04:31:54.327Z,20
2017-07-26T04:32:53.973Z,25
2017-07-26T04:33:53.979Z,25
2017-07-26T04:34:54.299Z,25
2017-07-26T04:35:53.944Z,25
2017-07-26T04:36:53.965Z,30
2017-07-26T04:37:53.605Z,35
2017-07-26T04:38:53.915Z,35
2017-07-26T04:39:54.229Z,30
2017-07-26T04:40:53.614Z,25
2017-07-26T04:41:53.600Z,25
2017-07-26T04:42:53.885Z,20
2017-07-26T04:43:53.563Z,20
2017-07-26T04:44:53.243Z,20
2017-07-26T04:45:54.218Z,20
2017-07-26T04:46:54.180Z,20
2017-07-26T04:47:53.527Z,15
2017-07-26T04:48:53.847Z,15
2017-07-26T04:49:53.872Z,20
2017-07-26T04:50:53.833Z,30
2017-07-26T04:51:53.823Z,30
2017-07-26T04:52:53.535Z,30
2017-07-26T04:53:53.811Z,30
2017-07-26T04:54:53.494Z,30
2017-07-26T04:55:53.482Z,40
2017-07-26T04:56:53.518Z,35
2017-07-26T04:57:53.801Z,40
2017-07-26T04:58:53.796Z,35
2017-07-26T04:59:53.797Z,35
2017-07-26T05:00:53.449Z,35
2017-07-26T05:01:54.114Z,40
2017-07-26T05:02:54.069Z,45
2017-07-26T05:03:53.447Z,45
2017-07-26T05:04:52.776Z,50
2017-07-26T05:05:53.720Z,80
2017-07-26T05:06:53.413Z,85
2017-07-26T05:07:53.725Z,90
2017-07-26T05:08:53.696Z,100
2017-07-26T05:09:53.739Z,95
2017-07-26T05:10:53.681Z,90
2017-07-26T05:11:54.020Z,110
2017-07-26T05:12:53.032Z,100
2017-07-26T05:13:53.678Z,75
2017-07-26T05:14:53.971Z,85
2017-07-26T05:15:53.685Z,95
2017-07-26T05:16:53.320Z,85
2017-07-26T05:17:53.641Z,100
2017-07-26T05:18:53.628Z,110
2017-07-26T05:19:53.625Z,120
2017-07-26T05:20:53.617Z,120
2017-07-26T05:21:53.611Z,120
2017-07-26T05:22:53.921Z,115
2017-07-26T05:23:53.275Z,105
2017-07-26T05:24:53.598Z,100
2017-07-26T05:25:53.575Z,110
2017-07-26T05:26:53.581Z,125
2017-07-26T05:27:53.582Z,125
2017-07-26T05:28:53.896Z,135
2017-07-26T05:29:53.298Z,145
2017-07-26T05:30:53.237Z,130
2017-07-26T05:31:53.537Z,135
2017-07-26T05:32:53.866Z,140
2017-07-26T05:33:53.201Z,155
2017-07-26T05:34:53.876Z,145
2017-07-26T05:35:53.834Z,135
2017-07-26T05:36:53.175Z,130
2017-07-26T05:37:53.822Z,130
2017-07-26T05:38:53.185Z,130
2017-07-26T05:39:53.517Z,140
2017-07-26T05:40:53.165Z,140
2017-07-26T05:41:53.150Z,145
2017-07-26T05:42:53.144Z,150
2017-07-26T05:43:53.490Z,180
2017-07-26T05:44:53.354Z,210
2017-07-26T05:45:53.448Z,210
2017-07-26T05:46:53.112Z,185
2017-07-26T05:47:53.778Z,195
2017-07-26T05:48:53.420Z,195
2017-07-26T05:49:53.775Z,185
2017-07-26T05:50:53.432Z,155
2017-07-26T05:51:53.085Z,165
2017-07-26T05:52:52.771Z,175
2017-07-26T05:53:53.717Z,165
2017-07-26T05:54:53.082Z,190
2017-07-26T05:55:53.065Z,175
2017-07-26T05:56:53.440Z,170
2017-07-26T05:57:53.370Z,190
2017-07-26T05:58:53.359Z,210
2017-07-26T05:59:52.712Z,245
2017-07-26T06:00:53.667Z,280
2017-07-26T06:01:53.359Z,255
2017-07-26T06:02:53.009Z,235
2017-07-26T06:03:53.650Z,250
2017-07-26T06:04:53.356Z,275
2017-07-26T06:05:52.690Z,330
2017-07-26T06:06:53.043Z,350
2017-07-26T06:07:53.669Z,300
2017-07-26T06:08:53.327Z,340
2017-07-26T06:09:53.316Z,340
2017-07-26T06:10:53.601Z,310
2017-07-26T06:11:53.274Z,285
2017-07-26T06:12:53.294Z,285
2017-07-26T06:13:53.614Z,275
2017-07-26T06:14:53.630Z,285
2017-07-26T06:15:53.296Z,255
2017-07-26T06:16:53.604Z,245
2017-07-26T06:17:53.263Z,245
2017-07-26T06:18:52.944Z,255
2017-07-26T06:19:53.247Z,260
2017-07-26T06:20:53.235Z,265
2017-07-26T06:21:53.232Z,320
2017-07-26T06:22:53.242Z,340
2017-07-26T06:23:52.913Z,345
2017-07-26T06:24:53.209Z,345
2017-07-26T06:25:53.199Z,360
2017-07-26T06:26:52.903Z,430
2017-07-26T06:27:52.876Z,460
2017-07-26T06:28:53.191Z,450
2017-07-26T06:29:53.541Z,450
2017-07-26T06:30:53.189Z,400
2017-07-26T06:31:52.856Z,345
2017-07-26T06:32:53.524Z,340
2017-07-26T06:33:53.192Z,355
2017-07-26T06:34:53.179Z,355
2017-07-26T06:35:53.481Z,390
2017-07-26T06:36:53.172Z,375
2017-07-26T06:37:53.155Z,375
2017-07-26T06:38:53.480Z,325
2017-07-26T06:39:53.183Z,325
2017-07-26T06:40:53.147Z,295
2017-07-26T06:41:53.127Z,275
2017-07-26T06:42:53.461Z,270
2017-07-26T06:43:53.143Z,275
2017-07-26T06:44:53.167Z,245
2017-07-26T06:45:53.104Z,215
2017-07-26T06:46:53.426Z,220
2017-07-26T06:47:53.433Z,205
2017-07-26T06:48:53.627Z,205
2017-07-26T06:49:53.427Z,200
2017-07-26T06:50:52.764Z,190
2017-07-26T06:51:53.076Z,200
2017-07-26T06:52:53.425Z,190
2017-07-26T06:53:53.108Z,175
2017-07-26T06:54:53.403Z,185
2017-07-26T06:55:53.094Z,190
2017-07-26T06:56:53.073Z,180
2017-07-26T06:57:53.379Z,165
2017-07-26T06:58:53.380Z,160
2017-07-26T06:59:52.749Z,160
2017-07-26T07:00:52.702Z,180
2017-07-26T07:01:52.716Z,210
2017-07-26T07:02:53.056Z,215
2017-07-26T07:03:53.009Z,180
2017-07-26T07:04:53.010Z,140
2017-07-26T07:05:52.687Z,125
2017-07-26T07:06:53.024Z,130
2017-07-26T07:07:52.343Z,155
2017-07-26T07:08:52.680Z,155
2017-07-26T07:09:52.339Z,155
2017-07-26T07:10:52.702Z,175
2017-07-26T07:11:52.982Z,175
2017-07-26T07:12:52.642Z,155
2017-07-26T07:13:52.973Z,170
2017-07-26T07:14:52.958Z,175
2017-07-26T07:15:52.305Z,200
2017-07-26T07:16:53.267Z,205
2017-07-26T07:17:53.259Z,225
2017-07-26T07:18:53.274Z,225
2017-07-26T07:19:52.936Z,220
2017-07-26T07:20:53.274Z,250
2017-07-26T07:21:52.934Z,250
2017-07-26T07:22:52.282Z,240
2017-07-26T07:23:52.908Z,230
2017-07-26T07:24:52.906Z,225
2017-07-26T07:25:53.272Z,245
2017-07-26T07:26:52.908Z,245
2017-07-26T07:27:52.894Z,205
2017-07-26T07:28:52.902Z,165
2017-07-26T07:29:52.886Z,170
2017-07-26T07:30:52.888Z,190
2017-07-26T07:31:53.204Z,190
2017-07-26T07:32:53.191Z,200
2017-07-26T07:33:53.374Z,215
2017-07-26T07:34:52.840Z,215
2017-07-26T07:35:52.523Z,225
2017-07-26T07:36:51.868Z,225
2017-07-26T07:37:52.828Z,240
2017-07-26T07:38:51.881Z,260
2017-07-26T07:39:52.497Z,255
2017-07-26T07:41:05.961Z,235
2017-07-26T07:41:52.834Z,215
2017-07-26T07:42:52.814Z,195
2017-07-26T07:43:52.505Z,200
2017-07-26T07:44:53.142Z,220
2017-07-26T07:45:52.486Z,250
2017-07-26T07:46:52.807Z,355
2017-07-26T07:47:53.142Z,425
2017-07-26T07:48:53.087Z,415
2017-07-26T07:49:53.087Z,395
2017-07-26T07:50:52.464Z,380
2017-07-26T07:51:53.101Z,340
2017-07-26T07:52:52.759Z,320
2017-07-26T07:53:53.068Z,295
2017-07-26T07:54:52.101Z,285
2017-07-26T07:55:52.781Z,290
2017-07-26T07:56:52.421Z,320
2017-07-26T07:57:52.742Z,320
2017-07-26T07:58:52.719Z,290
2017-07-26T07:59:52.725Z,275
2017-07-26T08:00:53.046Z,270
2017-07-26T08:01:52.393Z,235
2017-07-26T08:02:53.236Z,230
2017-07-26T08:03:52.717Z,245
2017-07-26T08:04:52.373Z,255
2017-07-26T08:05:52.716Z,255
2017-07-26T08:06:52.710Z,270
2017-07-26T08:07:52.389Z,280
2017-07-26T08:08:53.046Z,290
2017-07-26T08:09:52.686Z,280
2017-07-26T08:10:52.986Z,275
2017-07-26T08:11:52.690Z,275
2017-07-26T08:12:52.979Z,270
2017-07-26T08:13:52.965Z,280
2017-07-26T08:14:52.675Z,305
2017-07-26T08:15:53.005Z,280
2017-07-26T08:16:52.953Z,280
2017-07-26T08:17:52.314Z,320
2017-07-26T08:18:52.974Z,330
2017-07-26T08:19:51.673Z,345
2017-07-26T08:20:52.617Z,365
2017-07-26T08:21:52.639Z,415
2017-07-26T08:22:52.620Z,390
2017-07-26T08:23:52.290Z,350
2017-07-26T08:24:51.966Z,315
2017-07-26T08:25:52.613Z,290
2017-07-26T08:26:52.589Z,270
2017-07-26T08:27:52.596Z,260
2017-07-26T08:28:52.931Z,250
2017-07-26T08:29:52.918Z,245
2017-07-26T08:30:52.895Z,245
2017-07-26T08:31:52.895Z,250
2017-07-26T08:32:52.254Z,260
2017-07-26T08:33:52.558Z,270
2017-07-26T08:34:52.875Z,235
2017-07-26T08:35:51.935Z,215
2017-07-26T08:36:52.232Z,200
2017-07-26T08:37:52.862Z,190
2017-07-26T08:38:52.231Z,210
2017-07-26T08:39:52.550Z,225
2017-07-26T08:40:52.541Z,245
2017-07-26T08:41:52.223Z,250
2017-07-26T08:42:52.881Z,275
2017-07-26T08:43:52.227Z,275
2017-07-26T08:44:52.555Z,280
2017-07-26T08:45:52.551Z,285
2017-07-26T08:46:52.198Z,325
2017-07-26T08:47:52.514Z,300
2017-07-26T08:48:52.512Z,315
2017-07-26T08:49:52.495Z,370
2017-07-26T08:50:52.803Z,430
2017-07-26T08:51:52.215Z,385
2017-07-26T08:52:52.483Z,320
2017-07-26T08:53:51.837Z,290
2017-07-26T08:54:52.187Z,275
2017-07-26T08:55:52.490Z,360
2017-07-26T08:56:52.492Z,385
2017-07-26T08:57:52.464Z,340
2017-07-26T08:58:52.807Z,290
2017-07-26T08:59:52.781Z,255
2017-07-26T09:00:52.783Z,250
2017-07-26T09:01:52.447Z,285
2017-07-26T09:02:52.776Z,310
2017-07-26T09:03:52.447Z,280
2017-07-26T09:04:52.451Z,240
2017-07-26T09:05:52.423Z,235
2017-07-26T09:06:52.093Z,240
2017-07-26T09:07:52.732Z,235
2017-07-26T09:08:51.765Z,260
2017-07-26T09:09:52.411Z,295
2017-07-26T09:10:52.403Z,300
2017-07-26T09:11:52.719Z,320
2017-07-26T09:12:52.723Z,345
2017-07-26T09:13:52.748Z,360
2017-07-26T09:14:52.614Z,400
2017-07-26T09:15:52.384Z,400
2017-07-26T09:16:52.412Z,355
2017-07-26T09:17:52.375Z,345
2017-07-26T09:18:52.366Z,415
2017-07-26T09:19:52.694Z,500
2017-07-26T09:20:52.037Z,520
2017-07-26T09:21:52.673Z,480
2017-07-26T09:22:52.693Z,520
2017-07-26T09:23:52.025Z,510
2017-07-26T09:24:52.366Z,465
2017-07-26T09:25:52.698Z,465
2017-07-26T09:26:52.667Z,465
2017-07-26T09:27:52.014Z,350
2017-07-26T09:28:52.043Z,335
2017-07-26T09:29:52.346Z,280
2017-07-26T09:30:52.324Z,240
2017-07-26T09:31:52.331Z,235
2017-07-26T09:32:52.320Z,200
2017-07-26T09:33:52.655Z,190
2017-07-26T09:34:52.318Z,200
2017-07-26T09:35:52.325Z,280
2017-07-26T09:36:52.021Z,355
2017-07-26T09:37:52.319Z,370
2017-07-26T09:38:52.307Z,370
2017-07-26T09:39:52.283Z,340
2017-07-26T09:40:52.318Z,310
2017-07-26T09:41:52.289Z,335
2017-07-26T09:42:52.302Z,490
2017-07-26T09:43:51.950Z,460
2017-07-26T09:44:52.275Z,490
2017-07-26T09:45:52.285Z,500
2017-07-26T09:46:52.273Z,425
2017-07-26T09:47:52.261Z,360
2017-07-26T09:48:52.588Z,395
2017-07-26T09:49:52.267Z,365
2017-07-26T09:50:52.577Z,480
2017-07-26T09:51:52.275Z,550
2017-07-26T09:52:51.635Z,395
2017-07-26T09:53:52.261Z,260
2017-07-26T09:54:52.269Z,260
2017-07-26T09:55:52.457Z,215
2017-07-26T09:56:51.943Z,210
2017-07-26T09:57:52.235Z,220
2017-07-26T09:58:52.585Z,225
2017-07-26T09:59:52.217Z,195
2017-07-26T10:00:52.535Z,160
2017-07-26T10:01:52.224Z,145
2017-07-26T10:02:52.548Z,120
2017-07-26T10:03:52.549Z,105
2017-07-26T10:04:52.516Z,100
2017-07-26T10:05:52.220Z,110
2017-07-26T10:06:52.555Z,100
2017-07-26T10:07:52.537Z,100
2017-07-26T10:08:51.863Z,90
2017-07-26T10:09:52.208Z,100
2017-07-26T10:10:52.217Z,100
2017-07-26T10:11:52.512Z,100
2017-07-26T10:12:51.859Z,105
2017-07-26T10:13:52.178Z,95
2017-07-26T10:14:52.504Z,95
2017-07-26T10:15:51.855Z,130
2017-07-26T10:16:52.185Z,155
2017-07-26T10:17:52.478Z,160
2017-07-26T10:18:51.843Z,190
2017-07-26T10:19:52.474Z,235
2017-07-26T10:20:52.461Z,230
2017-07-26T10:21:52.453Z,250
2017-07-26T10:22:52.443Z,235
2017-07-26T10:23:51.500Z,250
2017-07-26T10:24:52.149Z,270
2017-07-26T10:25:52.461Z,360
2017-07-26T10:26:51.501Z,375
2017-07-26T10:27:52.427Z,375
2017-07-26T10:28:52.426Z,370
2017-07-26T10:29:52.090Z,330
2017-07-26T10:30:52.100Z,305
2017-07-26T10:31:51.803Z,290
2017-07-26T10:32:52.083Z,295
2017-07-26T10:33:51.442Z,320
2017-07-26T10:34:51.756Z,305
2017-07-26T10:35:51.763Z,305
2017-07-26T10:36:52.107Z,255
2017-07-26T10:37:52.389Z,220
2017-07-26T10:38:52.405Z,230
2017-07-26T10:39:52.064Z,225
2017-07-26T10:40:52.045Z,220
2017-07-26T10:41:51.737Z,220
2017-07-26T10:42:51.781Z,210
2017-07-26T10:43:52.044Z,205
2017-07-26T10:44:52.037Z,230
2017-07-26T10:45:51.705Z,250
2017-07-26T10:46:52.076Z,270
2017-07-26T10:47:51.698Z,230
2017-07-26T10:48:52.013Z,235
2017-07-26T10:49:52.049Z,270
2017-07-26T10:50:52.015Z,315
2017-07-26T10:51:52.370Z,275
2017-07-26T10:52:51.996Z,230
2017-07-26T10:53:52.339Z,230
2017-07-26T10:54:52.309Z,275
2017-07-26T10:55:52.312Z,315
2017-07-26T10:56:52.002Z,310
2017-07-26T10:57:51.993Z,275
2017-07-26T10:58:52.369Z,290
2017-07-26T10:59:57.673Z,255
2017-07-26T11:00:51.982Z,220
2017-07-26T11:01:51.976Z,250
2017-07-26T11:02:51.657Z,290
2017-07-26T11:03:51.949Z,285
2017-07-26T11:04:51.646Z,245
2017-07-26T11:05:52.285Z,240
2017-07-26T11:06:52.292Z,245
2017-07-26T11:07:51.956Z,285
2017-07-26T11:08:52.262Z,320
2017-07-26T11:09:51.928Z,370
2017-07-26T11:10:51.948Z,370
2017-07-26T11:11:52.298Z,335
2017-07-26T11:12:51.928Z,365
2017-07-26T11:13:51.930Z,360
2017-07-26T11:14:51.916Z,330
2017-07-26T11:15:51.919Z,305
2017-07-26T11:16:51.580Z,280
2017-07-26T11:17:51.916Z,295
2017-07-26T11:18:50.953Z,315
2017-07-26T11:19:51.899Z,315
2017-07-26T11:20:51.891Z,305
2017-07-26T11:21:52.237Z,300
2017-07-26T11:22:51.562Z,310
2017-07-26T11:23:52.231Z,320
2017-07-26T11:24:52.188Z,275
2017-07-26T11:25:51.858Z,270
2017-07-26T11:26:52.191Z,275
2017-07-26T11:27:51.872Z,250
2017-07-26T11:28:52.196Z,200
2017-07-26T11:29:52.171Z,170
2017-07-26T11:30:51.885Z,210
2017-07-26T11:31:51.851Z,245
2017-07-26T11:32:52.153Z,240
2017-07-26T11:33:51.516Z,265
2017-07-26T11:34:51.532Z,285
2017-07-26T11:35:51.499Z,270
2017-07-26T11:36:51.394Z,260
2017-07-26T11:37:51.815Z,245
2017-07-26T11:38:51.486Z,220
2017-07-26T11:39:51.481Z,240
2017-07-26T11:40:51.801Z,240
2017-07-26T11:41:52.152Z,265
2017-07-26T11:42:52.139Z,270
2017-07-26T11:43:51.500Z,270
2017-07-26T11:44:52.117Z,260
2017-07-26T11:45:51.779Z,220
2017-07-26T11:46:51.778Z,235
2017-07-26T11:47:51.131Z,220
2017-07-26T11:48:51.806Z,220
2017-07-26T11:49:52.096Z,195
2017-07-26T11:50:52.101Z,180
2017-07-26T11:51:51.442Z,175
2017-07-26T11:52:51.451Z,185
2017-07-26T11:53:51.475Z,170
2017-07-26T11:54:52.065Z,195
2017-07-26T11:55:51.778Z,160
2017-07-26T11:56:51.097Z,125
2017-07-26T11:57:52.060Z,160
2017-07-26T11:58:51.763Z,215
2017-07-26T11:59:51.746Z,200
2017-07-26T12:01:00.879Z,300
2017-07-26T12:01:51.761Z,285
2017-07-26T12:02:52.043Z,250
2017-07-26T12:03:51.065Z,220
2017-07-26T12:04:51.714Z,195
2017-07-26T12:05:51.388Z,290
2017-07-26T12:06:51.714Z,250
2017-07-26T12:07:51.363Z,210
2017-07-26T12:08:51.359Z,270
2017-07-26T12:09:51.672Z,255
2017-07-26T12:10:51.346Z,235
2017-07-26T12:11:51.344Z,225
2017-07-26T12:12:51.031Z,245
2017-07-26T12:13:51.654Z,165
2017-07-26T12:14:51.690Z,125
2017-07-26T12:15:51.346Z,135
2017-07-26T12:16:51.974Z,180
2017-07-26T12:17:51.637Z,165
2017-07-26T12:18:51.955Z,155
2017-07-26T12:19:50.982Z,125
2017-07-26T12:20:51.944Z,95
2017-07-26T12:21:51.318Z,105
2017-07-26T12:22:51.959Z,95
2017-07-26T12:23:51.678Z,100
2017-07-26T12:24:51.603Z,100
2017-07-26T12:25:51.914Z,135
2017-07-26T12:26:51.319Z,115
2017-07-26T12:27:51.263Z,115
2017-07-26T12:28:50.938Z,100
2017-07-26T12:29:51.906Z,120
2017-07-26T12:30:51.570Z,105
2017-07-26T12:31:51.577Z,150
2017-07-26T12:32:51.243Z,140
2017-07-26T12:33:51.559Z,120
2017-07-26T12:34:51.580Z,120
2017-07-26T12:35:51.576Z,135
2017-07-26T12:36:51.865Z,120
2017-07-26T12:37:50.907Z,130
2017-07-26T12:38:51.203Z,105
2017-07-26T12:39:51.847Z,110
2017-07-26T12:40:51.900Z,120
2017-07-26T12:41:51.835Z,160
2017-07-26T12:42:51.244Z,100
2017-07-26T12:43:51.915Z,175
2017-07-26T12:44:51.529Z,150
2017-07-26T12:45:51.489Z,175
2017-07-26T12:46:51.829Z,155
2017-07-26T12:47:51.496Z,130
2017-07-26T12:48:51.473Z,110
2017-07-26T12:49:51.475Z,230
2017-07-26T12:50:51.150Z,180
2017-07-26T12:51:51.470Z,210
2017-07-26T12:52:51.452Z,155
2017-07-26T12:53:51.448Z,140
2017-07-26T12:54:51.141Z,135
2017-07-26T12:55:51.119Z,185
2017-07-26T12:56:51.461Z,120
2017-07-26T12:57:51.749Z,135
2017-07-26T12:58:51.420Z,130
2017-07-26T12:59:51.421Z,110
2017-07-26T13:00:51.128Z,85
2017-07-26T13:01:51.410Z,90
2017-07-26T13:02:51.391Z,95
2017-07-26T13:03:51.724Z,115
2017-07-26T13:04:51.703Z,75
2017-07-26T13:05:51.382Z,75
2017-07-26T13:06:51.047Z,70
2017-07-26T13:07:51.690Z,80
2017-07-26T13:08:51.390Z,95
2017-07-26T13:09:51.031Z,85
2017-07-26T13:10:51.667Z,80
2017-07-26T13:11:51.017Z,105
2017-07-26T13:12:51.330Z,110
2017-07-26T13:13:51.332Z,90
2017-07-26T13:14:51.340Z,100
2017-07-26T13:15:51.314Z,105
2017-07-26T13:16:51.367Z,90
2017-07-26T13:17:51.001Z,90
2017-07-26T13:18:51.338Z,120
2017-07-26T13:19:51.338Z,125
2017-07-26T13:20:51.612Z,110
2017-07-26T13:21:50.964Z,105
2017-07-26T13:22:51.608Z,100
2017-07-26T13:23:51.588Z,115
2017-07-26T13:24:51.577Z,110
2017-07-26T13:25:51.272Z,95
2017-07-26T13:26:51.578Z,95
2017-07-26T13:27:51.581Z,95
2017-07-26T13:28:50.940Z,80
2017-07-26T13:29:50.594Z,80
2017-07-26T13:30:51.266Z,70
2017-07-26T13:31:50.897Z,65
2017-07-26T13:32:51.252Z,65
2017-07-26T13:33:51.220Z,80
2017-07-26T13:34:51.539Z,70
2017-07-26T13:35:50.882Z,60
2017-07-26T13:36:51.528Z,75
2017-07-26T13:37:51.507Z,55
2017-07-26T13:38:51.180Z,65
2017-07-26T13:39:51.518Z,60
2017-07-26T13:40:50.528Z,65
2017-07-26T13:41:51.170Z,70
2017-07-26T13:42:51.160Z,90
2017-07-26T13:43:50.830Z,80
2017-07-26T13:44:51.211Z,75
2017-07-26T13:45:51.479Z,80
2017-07-26T13:46:50.815Z,85
2017-07-26T13:47:51.119Z,75
2017-07-26T13:48:51.450Z,95
2017-07-26T13:49:51.114Z,105
2017-07-26T13:50:50.787Z,95
2017-07-26T13:51:51.116Z,85
2017-07-26T13:52:50.787Z,120
2017-07-26T13:53:51.135Z,95
2017-07-26T13:54:50.772Z,125
2017-07-26T13:55:51.076Z,145
2017-07-26T13:56:51.387Z,155
2017-07-26T13:57:50.737Z,165
2017-07-26T13:58:51.053Z,155
2017-07-26T13:59:50.720Z,155
2017-07-26T14:00:50.714Z,110
2017-07-26T14:01:51.104Z,100
2017-07-26T14:02:51.367Z,105
2017-07-26T14:03:51.047Z,150
2017-07-26T14:04:50.706Z,160
2017-07-26T14:05:51.030Z,160
2017-07-26T14:06:50.696Z,130
2017-07-26T14:07:51.029Z,110